sensor_id;sensor_type;location;lat;lon;timestamp;P1;durP1;ratioP1;P2;durP2;ratioP2
56653;SDS011;45096;52.302;4.634;2022-10-31T00:01:49;2.35;;;2.15;;
56653;SDS011;45096;52.302;4.634;2022-10-31T00:04:15;2.20;;;2.05;;
56653;SDS011;45096;52.302;4.634;2022-10-31T00:06:40;2.60;;;2.00;;
56653;SDS011;45096;52.302;4.634;2022-10-31T00:09:06;5.50;;;2.15;;
56653;SDS011;45096;52.302;4.634;2022-10-31T00:11:32;3.70;;;2.30;;
56653;SDS011;45096;52.302;4.634;2022-10-31T00:13:58;2.17;;;2.08;;
56653;SDS011;45096;52.302;4.634;2022-10-31T00:16:24;2.10;;;2.00;;
56653;SDS011;45096;52.302;4.634;2022-10-31T00:18:50;2.08;;;1.98;;
56653;SDS011;45096;52.302;4.634;2022-10-31T00:21:16;1.65;;;1.60;;
56653;SDS011;45096;52.302;4.634;2022-10-31T00:23:42;2.22;;;1.85;;
56653;SDS011;45096;52.302;4.634;2022-10-31T00:26:07;1.88;;;1.75;;
56653;SDS011;45096;52.302;4.634;2022-10-31T00:28:34;2.22;;;2.00;;
56653;SDS011;45096;52.302;4.634;2022-10-31T00:30:59;2.72;;;2.33;;
56653;SDS011;45096;52.302;4.634;2022-10-31T00:33:25;3.08;;;2.00;;
56653;SDS011;45096;52.302;4.634;2022-10-31T00:35:50;1.83;;;1.73;;
56653;SDS011;45096;52.302;4.634;2022-10-31T00:38:16;3.22;;;2.05;;
56653;SDS011;45096;52.302;4.634;2022-10-31T00:40:41;2.38;;;1.88;;
56653;SDS011;45096;52.302;4.634;2022-10-31T00:43:07;2.10;;;1.88;;
56653;SDS011;45096;52.302;4.634;2022-10-31T00:45:33;3.63;;;2.35;;
56653;SDS011;45096;52.302;4.634;2022-10-31T00:47:59;2.38;;;2.17;;
56653;SDS011;45096;52.302;4.634;2022-10-31T00:50:24;1.70;;;1.60;;
56653;SDS011;45096;52.302;4.634;2022-10-31T00:52:50;2.13;;;1.92;;
56653;SDS011;45096;52.302;4.634;2022-10-31T00:55:15;1.88;;;1.77;;
56653;SDS011;45096;52.302;4.634;2022-10-31T00:57:40;3.03;;;1.67;;
56653;SDS011;45096;52.302;4.634;2022-10-31T01:00:06;3.85;;;2.10;;
56653;SDS011;45096;52.302;4.634;2022-10-31T01:02:34;1.70;;;1.60;;
56653;SDS011;45096;52.302;4.634;2022-10-31T01:04:59;1.42;;;1.42;;
56653;SDS011;45096;52.302;4.634;2022-10-31T01:07:25;1.90;;;1.80;;
56653;SDS011;45096;52.302;4.634;2022-10-31T01:09:50;1.58;;;1.48;;
56653;SDS011;45096;52.302;4.634;2022-10-31T01:12:15;1.63;;;1.52;;
56653;SDS011;45096;52.302;4.634;2022-10-31T01:14:42;1.95;;;1.85;;
56653;SDS011;45096;52.302;4.634;2022-10-31T01:17:08;1.73;;;1.63;;
56653;SDS011;45096;52.302;4.634;2022-10-31T01:19:34;2.28;;;2.08;;
56653;SDS011;45096;52.302;4.634;2022-10-31T01:22:00;1.70;;;1.60;;
56653;SDS011;45096;52.302;4.634;2022-10-31T01:24:25;2.25;;;1.70;;
56653;SDS011;45096;52.302;4.634;2022-10-31T01:26:51;1.75;;;1.65;;
56653;SDS011;45096;52.302;4.634;2022-10-31T01:29:16;1.90;;;1.88;;
56653;SDS011;45096;52.302;4.634;2022-10-31T01:31:42;2.40;;;2.20;;
56653;SDS011;45096;52.302;4.634;2022-10-31T01:34:08;2.42;;;2.22;;
56653;SDS011;45096;52.302;4.634;2022-10-31T01:36:39;3.38;;;2.83;;
56653;SDS011;45096;52.302;4.634;2022-10-31T01:39:06;3.28;;;3.03;;
56653;SDS011;45096;52.302;4.634;2022-10-31T01:41:33;2.78;;;2.58;;
56653;SDS011;45096;52.302;4.634;2022-10-31T01:44:02;2.88;;;2.50;;
56653;SDS011;45096;52.302;4.634;2022-10-31T01:46:29;3.28;;;2.97;;
56653;SDS011;45096;52.302;4.634;2022-10-31T01:48:57;3.03;;;2.83;;
56653;SDS011;45096;52.302;4.634;2022-10-31T01:51:25;3.13;;;2.92;;
56653;SDS011;45096;52.302;4.634;2022-10-31T01:53:54;2.38;;;2.17;;
56653;SDS011;45096;52.302;4.634;2022-10-31T01:56:21;2.50;;;2.40;;
56653;SDS011;45096;52.302;4.634;2022-10-31T01:58:47;2.33;;;2.20;;
56653;SDS011;45096;52.302;4.634;2022-10-31T02:01:13;3.60;;;2.38;;
56653;SDS011;45096;52.302;4.634;2022-10-31T02:03:39;2.70;;;2.50;;
56653;SDS011;45096;52.302;4.634;2022-10-31T02:06:06;2.55;;;2.33;;
56653;SDS011;45096;52.302;4.634;2022-10-31T02:08:35;3.53;;;2.47;;
56653;SDS011;45096;52.302;4.634;2022-10-31T02:11:02;3.17;;;2.30;;
56653;SDS011;45096;52.302;4.634;2022-10-31T02:13:28;2.33;;;2.10;;
56653;SDS011;45096;52.302;4.634;2022-10-31T02:15:55;3.63;;;2.22;;
56653;SDS011;45096;52.302;4.634;2022-10-31T02:18:22;2.70;;;2.38;;
56653;SDS011;45096;52.302;4.634;2022-10-31T02:20:50;2.20;;;2.00;;
56653;SDS011;45096;52.302;4.634;2022-10-31T02:23:23;2.05;;;1.95;;
56653;SDS011;45096;52.302;4.634;2022-10-31T02:26:13;2.70;;;2.50;;
56653;SDS011;45096;52.302;4.634;2022-10-31T02:31:52;3.53;;;2.00;;
56653;SDS011;45096;52.302;4.634;2022-10-31T02:34:21;2.22;;;2.13;;
56653;SDS011;45096;52.302;4.634;2022-10-31T02:36:51;3.92;;;2.25;;
56653;SDS011;45096;52.302;4.634;2022-10-31T02:39:18;2.10;;;2.00;;
56653;SDS011;45096;52.302;4.634;2022-10-31T02:41:48;1.92;;;1.83;;
56653;SDS011;45096;52.302;4.634;2022-10-31T02:44:20;2.17;;;2.08;;
56653;SDS011;45096;52.302;4.634;2022-10-31T02:46:48;2.30;;;2.10;;
56653;SDS011;45096;52.302;4.634;2022-10-31T02:49:18;3.22;;;2.38;;
56653;SDS011;45096;52.302;4.634;2022-10-31T02:51:46;2.20;;;2.10;;
56653;SDS011;45096;52.302;4.634;2022-10-31T02:54:18;2.05;;;1.95;;
56653;SDS011;45096;52.302;4.634;2022-10-31T02:56:45;2.70;;;2.00;;
56653;SDS011;45096;52.302;4.634;2022-10-31T02:59:11;2.58;;;2.35;;
56653;SDS011;45096;52.302;4.634;2022-10-31T03:01:40;2.08;;;1.98;;
56653;SDS011;45096;52.302;4.634;2022-10-31T03:04:25;2.70;;;2.33;;
56653;SDS011;45096;52.302;4.634;2022-10-31T03:06:57;2.30;;;2.10;;
56653;SDS011;45096;52.302;4.634;2022-10-31T03:09:27;2.65;;;2.30;;
56653;SDS011;45096;52.302;4.634;2022-10-31T03:11:58;2.40;;;2.10;;
56653;SDS011;45096;52.302;4.634;2022-10-31T03:14:30;2.50;;;2.30;;
56653;SDS011;45096;52.302;4.634;2022-10-31T03:16:57;2.70;;;2.50;;
56653;SDS011;45096;52.302;4.634;2022-10-31T03:19:27;2.53;;;2.25;;
56653;SDS011;45096;52.302;4.634;2022-10-31T03:21:55;2.20;;;2.10;;
56653;SDS011;45096;52.302;4.634;2022-10-31T03:24:24;2.10;;;2.00;;
56653;SDS011;45096;52.302;4.634;2022-10-31T03:26:53;2.28;;;2.15;;
56653;SDS011;45096;52.302;4.634;2022-10-31T03:29:20;2.55;;;2.33;;
56653;SDS011;45096;52.302;4.634;2022-10-31T03:31:49;2.75;;;2.50;;
56653;SDS011;45096;52.302;4.634;2022-10-31T03:34:16;3.38;;;2.58;;
56653;SDS011;45096;52.302;4.634;2022-10-31T03:36:45;2.58;;;2.38;;
56653;SDS011;45096;52.302;4.634;2022-10-31T03:39:12;3.08;;;2.30;;
56653;SDS011;45096;52.302;4.634;2022-10-31T03:41:40;2.42;;;2.17;;
56653;SDS011;45096;52.302;4.634;2022-10-31T03:44:07;2.17;;;2.08;;
56653;SDS011;45096;52.302;4.634;2022-10-31T03:46:34;2.60;;;2.40;;
56653;SDS011;45096;52.302;4.634;2022-10-31T03:48:59;2.53;;;2.40;;
56653;SDS011;45096;52.302;4.634;2022-10-31T03:51:26;3.00;;;2.78;;
56653;SDS011;45096;52.302;4.634;2022-10-31T03:54:01;2.63;;;2.42;;
56653;SDS011;45096;52.302;4.634;2022-10-31T03:56:29;3.33;;;2.75;;
56653;SDS011;45096;52.302;4.634;2022-10-31T03:59:00;2.97;;;2.78;;
56653;SDS011;45096;52.302;4.634;2022-10-31T04:01:28;4.40;;;2.92;;
56653;SDS011;45096;52.302;4.634;2022-10-31T04:03:55;2.97;;;2.72;;
56653;SDS011;45096;52.302;4.634;2022-10-31T04:06:21;3.28;;;2.78;;
56653;SDS011;45096;52.302;4.634;2022-10-31T04:08:49;2.85;;;2.65;;
56653;SDS011;45096;52.302;4.634;2022-10-31T04:11:18;3.30;;;3.08;;
56653;SDS011;45096;52.302;4.634;2022-10-31T04:13:46;3.63;;;3.35;;
56653;SDS011;45096;52.302;4.634;2022-10-31T04:16:13;3.80;;;3.50;;
56653;SDS011;45096;52.302;4.634;2022-10-31T04:18:39;4.30;;;3.05;;
56653;SDS011;45096;52.302;4.634;2022-10-31T04:21:06;3.28;;;3.08;;
56653;SDS011;45096;52.302;4.634;2022-10-31T04:23:33;3.30;;;3.00;;
56653;SDS011;45096;52.302;4.634;2022-10-31T04:25:59;3.28;;;2.95;;
56653;SDS011;45096;52.302;4.634;2022-10-31T04:28:25;2.75;;;2.53;;
56653;SDS011;45096;52.302;4.634;2022-10-31T04:30:51;3.35;;;3.13;;
56653;SDS011;45096;52.302;4.634;2022-10-31T04:33:17;3.83;;;3.00;;
56653;SDS011;45096;52.302;4.634;2022-10-31T04:35:42;3.80;;;3.50;;
56653;SDS011;45096;52.302;4.634;2022-10-31T04:38:07;3.05;;;2.80;;
56653;SDS011;45096;52.302;4.634;2022-10-31T04:40:33;3.50;;;3.28;;
56653;SDS011;45096;52.302;4.634;2022-10-31T04:42:58;4.07;;;3.15;;
56653;SDS011;45096;52.302;4.634;2022-10-31T04:45:25;3.75;;;3.45;;
56653;SDS011;45096;52.302;4.634;2022-10-31T04:47:50;3.72;;;3.10;;
56653;SDS011;45096;52.302;4.634;2022-10-31T04:50:16;3.35;;;2.88;;
56653;SDS011;45096;52.302;4.634;2022-10-31T04:52:42;3.63;;;3.33;;
56653;SDS011;45096;52.302;4.634;2022-10-31T04:55:08;4.88;;;3.60;;
56653;SDS011;45096;52.302;4.634;2022-10-31T04:57:39;3.40;;;3.10;;
56653;SDS011;45096;52.302;4.634;2022-10-31T05:00:06;4.07;;;3.30;;
56653;SDS011;45096;52.302;4.634;2022-10-31T05:02:33;4.25;;;3.28;;
56653;SDS011;45096;52.302;4.634;2022-10-31T05:04:58;3.35;;;3.05;;
56653;SDS011;45096;52.302;4.634;2022-10-31T05:07:24;3.60;;;3.30;;
56653;SDS011;45096;52.302;4.634;2022-10-31T05:09:49;5.20;;;3.60;;
56653;SDS011;45096;52.302;4.634;2022-10-31T05:12:15;4.63;;;3.05;;
56653;SDS011;45096;52.302;4.634;2022-10-31T05:14:40;3.90;;;3.60;;
56653;SDS011;45096;52.302;4.634;2022-10-31T05:17:05;5.45;;;3.60;;
56653;SDS011;45096;52.302;4.634;2022-10-31T05:19:32;3.35;;;3.08;;
56653;SDS011;45096;52.302;4.634;2022-10-31T05:21:58;3.42;;;3.13;;
56653;SDS011;45096;52.302;4.634;2022-10-31T05:24:23;3.33;;;3.13;;
56653;SDS011;45096;52.302;4.634;2022-10-31T05:26:49;3.90;;;3.60;;
56653;SDS011;45096;52.302;4.634;2022-10-31T05:29:14;4.15;;;3.75;;
56653;SDS011;45096;52.302;4.634;2022-10-31T05:31:39;4.00;;;3.58;;
56653;SDS011;45096;52.302;4.634;2022-10-31T05:34:05;3.95;;;3.55;;
56653;SDS011;45096;52.302;4.634;2022-10-31T05:36:32;3.63;;;3.33;;
56653;SDS011;45096;52.302;4.634;2022-10-31T05:38:57;4.85;;;4.03;;
56653;SDS011;45096;52.302;4.634;2022-10-31T05:41:22;4.28;;;3.85;;
56653;SDS011;45096;52.302;4.634;2022-10-31T05:43:48;4.47;;;4.07;;
56653;SDS011;45096;52.302;4.634;2022-10-31T05:46:13;4.35;;;3.95;;
56653;SDS011;45096;52.302;4.634;2022-10-31T05:48:39;4.88;;;3.65;;
56653;SDS011;45096;52.302;4.634;2022-10-31T05:51:04;4.60;;;4.18;;
56653;SDS011;45096;52.302;4.634;2022-10-31T05:53:31;4.70;;;4.30;;
56653;SDS011;45096;52.302;4.634;2022-10-31T05:55:56;6.93;;;4.43;;
56653;SDS011;45096;52.302;4.634;2022-10-31T05:58:22;4.75;;;4.18;;
56653;SDS011;45096;52.302;4.634;2022-10-31T06:00:47;5.65;;;4.63;;
56653;SDS011;45096;52.302;4.634;2022-10-31T06:03:13;3.85;;;3.53;;
56653;SDS011;45096;52.302;4.634;2022-10-31T06:05:38;5.45;;;4.57;;
56653;SDS011;45096;52.302;4.634;2022-10-31T06:08:03;6.15;;;4.50;;
56653;SDS011;45096;52.302;4.634;2022-10-31T06:10:31;4.70;;;4.30;;
56653;SDS011;45096;52.302;4.634;2022-10-31T06:12:56;5.40;;;4.90;;
56653;SDS011;45096;52.302;4.634;2022-10-31T06:15:21;4.93;;;4.53;;
56653;SDS011;45096;52.302;4.634;2022-10-31T06:17:47;5.13;;;4.50;;
56653;SDS011;45096;52.302;4.634;2022-10-31T06:20:22;5.38;;;4.88;;
56653;SDS011;45096;52.302;4.634;2022-10-31T06:22:47;4.72;;;4.32;;
56653;SDS011;45096;52.302;4.634;2022-10-31T06:25:13;6.13;;;5.25;;
56653;SDS011;45096;52.302;4.634;2022-10-31T06:27:40;6.13;;;5.07;;
56653;SDS011;45096;52.302;4.634;2022-10-31T06:30:05;4.72;;;4.28;;
56653;SDS011;45096;52.302;4.634;2022-10-31T06:32:32;5.65;;;5.10;;
56653;SDS011;45096;52.302;4.634;2022-10-31T06:34:57;5.75;;;5.15;;
56653;SDS011;45096;52.302;4.634;2022-10-31T06:37:22;5.43;;;4.90;;
56653;SDS011;45096;52.302;4.634;2022-10-31T06:39:48;5.20;;;4.68;;
56653;SDS011;45096;52.302;4.634;2022-10-31T06:42:15;6.82;;;5.70;;
56653;SDS011;45096;52.302;4.634;2022-10-31T06:44:41;6.45;;;5.75;;
56653;SDS011;45096;52.302;4.634;2022-10-31T06:47:07;8.82;;;6.45;;
56653;SDS011;45096;52.302;4.634;2022-10-31T06:49:32;7.07;;;5.22;;
56653;SDS011;45096;52.302;4.634;2022-10-31T06:51:58;6.30;;;5.70;;
56653;SDS011;45096;52.302;4.634;2022-10-31T06:54:23;5.35;;;4.75;;
56653;SDS011;45096;52.302;4.634;2022-10-31T06:56:48;6.18;;;5.63;;
56653;SDS011;45096;52.302;4.634;2022-10-31T06:59:14;8.02;;;5.32;;
56653;SDS011;45096;52.302;4.634;2022-10-31T07:01:41;6.45;;;5.28;;
56653;SDS011;45096;52.302;4.634;2022-10-31T07:04:07;6.72;;;6.05;;
56653;SDS011;45096;52.302;4.634;2022-10-31T07:06:32;6.80;;;6.10;;
56653;SDS011;45096;52.302;4.634;2022-10-31T07:08:58;6.43;;;5.68;;
56653;SDS011;45096;52.302;4.634;2022-10-31T07:11:23;6.22;;;5.55;;
56653;SDS011;45096;52.302;4.634;2022-10-31T07:13:49;5.95;;;5.45;;
56653;SDS011;45096;52.302;4.634;2022-10-31T07:16:14;6.47;;;5.22;;
56653;SDS011;45096;52.302;4.634;2022-10-31T07:18:41;7.38;;;6.07;;
56653;SDS011;45096;52.302;4.634;2022-10-31T07:21:06;7.15;;;6.30;;
56653;SDS011;45096;52.302;4.634;2022-10-31T07:23:32;9.80;;;6.47;;
56653;SDS011;45096;52.302;4.634;2022-10-31T07:25:57;11.18;;;8.70;;
56653;SDS011;45096;52.302;4.634;2022-10-31T07:28:23;10.13;;;7.95;;
56653;SDS011;45096;52.302;4.634;2022-10-31T07:30:49;9.75;;;7.90;;
56653;SDS011;45096;52.302;4.634;2022-10-31T07:33:15;12.77;;;8.30;;
56653;SDS011;45096;52.302;4.634;2022-10-31T07:35:42;9.70;;;7.55;;
56653;SDS011;45096;52.302;4.634;2022-10-31T07:38:07;12.18;;;8.00;;
56653;SDS011;45096;52.302;4.634;2022-10-31T07:40:33;11.18;;;8.38;;
56653;SDS011;45096;52.302;4.634;2022-10-31T07:42:59;11.77;;;7.82;;
56653;SDS011;45096;52.302;4.634;2022-10-31T07:45:24;10.48;;;7.95;;
56653;SDS011;45096;52.302;4.634;2022-10-31T07:47:50;9.32;;;7.55;;
56653;SDS011;45096;52.302;4.634;2022-10-31T07:50:17;10.93;;;8.43;;
56653;SDS011;45096;52.302;4.634;2022-10-31T07:52:45;11.32;;;8.38;;
56653;SDS011;45096;52.302;4.634;2022-10-31T07:55:10;9.93;;;7.55;;
56653;SDS011;45096;52.302;4.634;2022-10-31T07:57:36;15.00;;;8.75;;
56653;SDS011;45096;52.302;4.634;2022-10-31T08:00:02;10.75;;;8.10;;
56653;SDS011;45096;52.302;4.634;2022-10-31T08:02:28;12.50;;;9.05;;
56653;SDS011;45096;52.302;4.634;2022-10-31T08:04:53;12.82;;;8.30;;
56653;SDS011;45096;52.302;4.634;2022-10-31T08:07:19;8.40;;;7.38;;
56653;SDS011;45096;52.302;4.634;2022-10-31T08:09:45;11.23;;;8.55;;
56653;SDS011;45096;52.302;4.634;2022-10-31T08:12:11;10.90;;;7.97;;
56653;SDS011;45096;52.302;4.634;2022-10-31T08:14:36;12.40;;;9.13;;
56653;SDS011;45096;52.302;4.634;2022-10-31T08:17:02;9.50;;;8.50;;
56653;SDS011;45096;52.302;4.634;2022-10-31T08:19:27;10.10;;;8.43;;
56653;SDS011;45096;52.302;4.634;2022-10-31T08:21:53;14.40;;;9.63;;
56653;SDS011;45096;52.302;4.634;2022-10-31T08:24:18;9.38;;;8.00;;
56653;SDS011;45096;52.302;4.634;2022-10-31T08:26:45;12.80;;;8.93;;
56653;SDS011;45096;52.302;4.634;2022-10-31T08:29:10;11.82;;;9.13;;
56653;SDS011;45096;52.302;4.634;2022-10-31T08:31:36;13.60;;;9.23;;
56653;SDS011;45096;52.302;4.634;2022-10-31T08:34:01;10.98;;;9.63;;
56653;SDS011;45096;52.302;4.634;2022-10-31T08:36:27;12.23;;;8.43;;
56653;SDS011;45096;52.302;4.634;2022-10-31T08:38:53;11.40;;;9.90;;
56653;SDS011;45096;52.302;4.634;2022-10-31T08:41:18;14.07;;;10.02;;
56653;SDS011;45096;52.302;4.634;2022-10-31T08:43:45;11.73;;;9.38;;
56653;SDS011;45096;52.302;4.634;2022-10-31T08:46:11;14.38;;;10.40;;
56653;SDS011;45096;52.302;4.634;2022-10-31T08:48:37;14.07;;;10.05;;
56653;SDS011;45096;52.302;4.634;2022-10-31T08:51:02;11.05;;;9.30;;
56653;SDS011;45096;52.302;4.634;2022-10-31T08:53:28;14.80;;;10.40;;
56653;SDS011;45096;52.302;4.634;2022-10-31T08:55:54;15.20;;;10.13;;
56653;SDS011;45096;52.302;4.634;2022-10-31T08:58:20;12.13;;;9.85;;
56653;SDS011;45096;52.302;4.634;2022-10-31T09:00:47;13.05;;;10.65;;
56653;SDS011;45096;52.302;4.634;2022-10-31T09:03:15;15.63;;;9.82;;
56653;SDS011;45096;52.302;4.634;2022-10-31T09:05:41;13.93;;;10.48;;
56653;SDS011;45096;52.302;4.634;2022-10-31T09:08:07;14.70;;;10.93;;
56653;SDS011;45096;52.302;4.634;2022-10-31T09:10:33;15.90;;;11.52;;
56653;SDS011;45096;52.302;4.634;2022-10-31T09:13:00;17.70;;;12.18;;
56653;SDS011;45096;52.302;4.634;2022-10-31T09:15:27;14.75;;;10.75;;
56653;SDS011;45096;52.302;4.634;2022-10-31T09:17:54;14.63;;;10.48;;
56653;SDS011;45096;52.302;4.634;2022-10-31T09:20:20;16.17;;;11.18;;
56653;SDS011;45096;52.302;4.634;2022-10-31T09:22:45;14.80;;;10.38;;
56653;SDS011;45096;52.302;4.634;2022-10-31T09:25:11;15.93;;;12.45;;
56653;SDS011;45096;52.302;4.634;2022-10-31T09:27:36;16.25;;;11.30;;
56653;SDS011;45096;52.302;4.634;2022-10-31T09:30:02;14.35;;;10.93;;
56653;SDS011;45096;52.302;4.634;2022-10-31T09:32:27;15.43;;;10.82;;
56653;SDS011;45096;52.302;4.634;2022-10-31T09:34:54;14.65;;;10.68;;
56653;SDS011;45096;52.302;4.634;2022-10-31T09:37:19;17.83;;;12.35;;
56653;SDS011;45096;52.302;4.634;2022-10-31T09:39:45;16.17;;;12.10;;
56653;SDS011;45096;52.302;4.634;2022-10-31T09:42:19;14.70;;;10.18;;
56653;SDS011;45096;52.302;4.634;2022-10-31T09:44:51;15.55;;;11.05;;
56653;SDS011;45096;52.302;4.634;2022-10-31T09:47:23;17.15;;;12.40;;
56653;SDS011;45096;52.302;4.634;2022-10-31T09:52:41;14.48;;;9.95;;
56653;SDS011;45096;52.302;4.634;2022-10-31T09:55:13;18.75;;;12.63;;
56653;SDS011;45096;52.302;4.634;2022-10-31T09:57:41;15.80;;;11.55;;
56653;SDS011;45096;52.302;4.634;2022-10-31T10:00:07;17.38;;;12.68;;
56653;SDS011;45096;52.302;4.634;2022-10-31T10:02:39;19.50;;;12.10;;
56653;SDS011;45096;52.302;4.634;2022-10-31T10:05:09;16.70;;;11.63;;
56653;SDS011;45096;52.302;4.634;2022-10-31T10:07:40;17.70;;;11.95;;
56653;SDS011;45096;52.302;4.634;2022-10-31T10:10:13;16.05;;;12.05;;
56653;SDS011;45096;52.302;4.634;2022-10-31T10:12:42;15.77;;;11.60;;
56653;SDS011;45096;52.302;4.634;2022-10-31T10:18:03;16.55;;;10.80;;
56653;SDS011;45096;52.302;4.634;2022-10-31T10:20:37;16.10;;;10.85;;
56653;SDS011;45096;52.302;4.634;2022-10-31T10:23:14;19.33;;;12.00;;
56653;SDS011;45096;52.302;4.634;2022-10-31T10:25:49;15.48;;;11.02;;
56653;SDS011;45096;52.302;4.634;2022-10-31T10:28:20;15.77;;;12.02;;
56653;SDS011;45096;52.302;4.634;2022-10-31T10:30:47;14.95;;;10.85;;
56653;SDS011;45096;52.302;4.634;2022-10-31T10:33:16;15.93;;;12.05;;
56653;SDS011;45096;52.302;4.634;2022-10-31T10:35:45;18.23;;;11.68;;
56653;SDS011;45096;52.302;4.634;2022-10-31T10:38:19;17.42;;;11.23;;
56653;SDS011;45096;52.302;4.634;2022-10-31T10:40:48;15.93;;;11.07;;
56653;SDS011;45096;52.302;4.634;2022-10-31T10:43:19;13.60;;;9.93;;
56653;SDS011;45096;52.302;4.634;2022-10-31T10:45:49;14.13;;;11.60;;
56653;SDS011;45096;52.302;4.634;2022-10-31T10:48:18;16.08;;;10.95;;
56653;SDS011;45096;52.302;4.634;2022-10-31T10:50:48;13.73;;;10.20;;
56653;SDS011;45096;52.302;4.634;2022-10-31T10:53:21;17.48;;;11.65;;
56653;SDS011;45096;52.302;4.634;2022-10-31T10:55:56;15.02;;;11.20;;
56653;SDS011;45096;52.302;4.634;2022-10-31T10:58:24;17.30;;;11.43;;
56653;SDS011;45096;52.302;4.634;2022-10-31T11:00:50;15.85;;;10.82;;
56653;SDS011;45096;52.302;4.634;2022-10-31T11:03:17;15.60;;;10.65;;
56653;SDS011;45096;52.302;4.634;2022-10-31T11:05:44;17.13;;;11.52;;
56653;SDS011;45096;52.302;4.634;2022-10-31T11:08:23;17.00;;;11.68;;
56653;SDS011;45096;52.302;4.634;2022-10-31T11:10:55;20.50;;;12.45;;
56653;SDS011;45096;52.302;4.634;2022-10-31T11:13:23;15.93;;;11.48;;
56653;SDS011;45096;52.302;4.634;2022-10-31T11:15:50;19.80;;;11.63;;
56653;SDS011;45096;52.302;4.634;2022-10-31T11:18:19;18.25;;;11.02;;
56653;SDS011;45096;52.302;4.634;2022-10-31T11:20:50;15.82;;;11.60;;
56653;SDS011;45096;52.302;4.634;2022-10-31T11:23:17;16.17;;;11.23;;
56653;SDS011;45096;52.302;4.634;2022-10-31T11:25:51;17.95;;;11.30;;
56653;SDS011;45096;52.302;4.634;2022-10-31T11:28:20;16.65;;;11.68;;
56653;SDS011;45096;52.302;4.634;2022-10-31T11:30:47;17.35;;;12.57;;
56653;SDS011;45096;52.302;4.634;2022-10-31T11:33:16;16.30;;;11.55;;
56653;SDS011;45096;52.302;4.634;2022-10-31T11:35:43;18.52;;;12.65;;
56653;SDS011;45096;52.302;4.634;2022-10-31T11:38:12;19.77;;;13.38;;
56653;SDS011;45096;52.302;4.634;2022-10-31T11:40:50;15.30;;;11.35;;
56653;SDS011;45096;52.302;4.634;2022-10-31T11:43:18;17.13;;;11.48;;
56653;SDS011;45096;52.302;4.634;2022-10-31T11:45:44;18.40;;;12.00;;
56653;SDS011;45096;52.302;4.634;2022-10-31T11:48:15;16.63;;;11.80;;
56653;SDS011;45096;52.302;4.634;2022-10-31T11:50:41;15.50;;;10.50;;
56653;SDS011;45096;52.302;4.634;2022-10-31T11:53:11;16.52;;;11.30;;
56653;SDS011;45096;52.302;4.634;2022-10-31T11:55:38;14.00;;;11.30;;
56653;SDS011;45096;52.302;4.634;2022-10-31T11:58:18;15.32;;;10.25;;
56653;SDS011;45096;52.302;4.634;2022-10-31T12:00:48;12.02;;;9.48;;
56653;SDS011;45096;52.302;4.634;2022-10-31T12:03:15;11.95;;;9.18;;
56653;SDS011;45096;52.302;4.634;2022-10-31T12:05:51;11.60;;;9.88;;
56653;SDS011;45096;52.302;4.634;2022-10-31T12:08:20;14.88;;;10.25;;
56653;SDS011;45096;52.302;4.634;2022-10-31T12:10:51;13.75;;;10.10;;
56653;SDS011;45096;52.302;4.634;2022-10-31T12:13:27;11.30;;;8.18;;
56653;SDS011;45096;52.302;4.634;2022-10-31T12:15:59;15.63;;;8.82;;
56653;SDS011;45096;52.302;4.634;2022-10-31T12:18:52;9.27;;;8.25;;
56653;SDS011;45096;52.302;4.634;2022-10-31T12:21:24;10.18;;;8.18;;
56653;SDS011;45096;52.302;4.634;2022-10-31T12:24:03;14.45;;;9.10;;
56653;SDS011;45096;52.302;4.634;2022-10-31T12:26:38;14.32;;;8.45;;
56653;SDS011;45096;52.302;4.634;2022-10-31T12:29:13;12.20;;;8.48;;
56653;SDS011;45096;52.302;4.634;2022-10-31T12:31:48;14.48;;;9.10;;
56653;SDS011;45096;52.302;4.634;2022-10-31T12:37:03;12.30;;;10.02;;
56653;SDS011;45096;52.302;4.634;2022-10-31T12:39:35;15.35;;;10.20;;
56653;SDS011;45096;52.302;4.634;2022-10-31T12:42:07;16.45;;;10.85;;
56653;SDS011;45096;52.302;4.634;2022-10-31T12:44:44;14.77;;;10.02;;
56653;SDS011;45096;52.302;4.634;2022-10-31T12:47:28;14.15;;;9.52;;
56653;SDS011;45096;52.302;4.634;2022-10-31T12:50:05;15.43;;;10.82;;
56653;SDS011;45096;52.302;4.634;2022-10-31T12:52:46;18.17;;;12.70;;
56653;SDS011;45096;52.302;4.634;2022-10-31T12:55:25;20.45;;;13.48;;
56653;SDS011;45096;52.302;4.634;2022-10-31T12:58:00;22.45;;;12.18;;
56653;SDS011;45096;52.302;4.634;2022-10-31T13:00:29;13.10;;;10.10;;
56653;SDS011;45096;52.302;4.634;2022-10-31T13:02:57;17.30;;;12.38;;
56653;SDS011;45096;52.302;4.634;2022-10-31T13:05:25;16.90;;;10.63;;
56653;SDS011;45096;52.302;4.634;2022-10-31T13:07:53;17.85;;;12.65;;
56653;SDS011;45096;52.302;4.634;2022-10-31T13:10:22;13.63;;;10.45;;
56653;SDS011;45096;52.302;4.634;2022-10-31T13:12:50;20.02;;;12.05;;
56653;SDS011;45096;52.302;4.634;2022-10-31T13:15:20;24.83;;;14.00;;
56653;SDS011;45096;52.302;4.634;2022-10-31T13:17:49;18.63;;;12.93;;
56653;SDS011;45096;52.302;4.634;2022-10-31T13:20:19;25.38;;;16.75;;
56653;SDS011;45096;52.302;4.634;2022-10-31T13:22:48;21.80;;;13.07;;
56653;SDS011;45096;52.302;4.634;2022-10-31T13:25:16;25.17;;;14.88;;
56653;SDS011;45096;52.302;4.634;2022-10-31T13:27:46;21.77;;;14.57;;
56653;SDS011;45096;52.302;4.634;2022-10-31T13:30:14;20.33;;;14.43;;
56653;SDS011;45096;52.302;4.634;2022-10-31T13:32:41;30.92;;;18.90;;
56653;SDS011;45096;52.302;4.634;2022-10-31T13:35:12;22.02;;;14.95;;
56653;SDS011;45096;52.302;4.634;2022-10-31T13:37:43;21.95;;;14.00;;
56653;SDS011;45096;52.302;4.634;2022-10-31T13:40:12;27.33;;;16.90;;
56653;SDS011;45096;52.302;4.634;2022-10-31T13:42:48;23.42;;;14.73;;
56653;SDS011;45096;52.302;4.634;2022-10-31T13:45:18;22.25;;;15.82;;
56653;SDS011;45096;52.302;4.634;2022-10-31T13:47:54;25.10;;;14.85;;
56653;SDS011;45096;52.302;4.634;2022-10-31T13:50:24;24.67;;;16.30;;
56653;SDS011;45096;52.302;4.634;2022-10-31T13:52:50;23.08;;;16.23;;
56653;SDS011;45096;52.302;4.634;2022-10-31T13:55:34;24.40;;;16.40;;
56653;SDS011;45096;52.302;4.634;2022-10-31T13:58:02;23.05;;;14.60;;
56653;SDS011;45096;52.302;4.634;2022-10-31T14:00:28;24.77;;;15.80;;
56653;SDS011;45096;52.302;4.634;2022-10-31T14:02:56;24.02;;;14.70;;
56653;SDS011;45096;52.302;4.634;2022-10-31T14:05:23;19.63;;;14.07;;
56653;SDS011;45096;52.302;4.634;2022-10-31T14:07:51;21.73;;;15.15;;
56653;SDS011;45096;52.302;4.634;2022-10-31T14:10:20;25.75;;;15.40;;
56653;SDS011;45096;52.302;4.634;2022-10-31T14:12:46;24.48;;;14.98;;
56653;SDS011;45096;52.302;4.634;2022-10-31T14:15:14;20.42;;;13.50;;
56653;SDS011;45096;52.302;4.634;2022-10-31T14:17:44;23.38;;;15.75;;
56653;SDS011;45096;52.302;4.634;2022-10-31T14:26:05;20.10;;;13.40;;
56653;SDS011;45096;52.302;4.634;2022-10-31T14:28:32;23.10;;;14.50;;
56653;SDS011;45096;52.302;4.634;2022-10-31T14:31:00;25.15;;;14.50;;
56653;SDS011;45096;52.302;4.634;2022-10-31T14:33:26;19.13;;;12.70;;
56653;SDS011;45096;52.302;4.634;2022-10-31T14:35:56;20.33;;;14.05;;
56653;SDS011;45096;52.302;4.634;2022-10-31T14:41:22;22.63;;;14.18;;
56653;SDS011;45096;52.302;4.634;2022-10-31T14:44:05;20.75;;;14.02;;
56653;SDS011;45096;52.302;4.634;2022-10-31T14:46:51;26.20;;;16.10;;
56653;SDS011;45096;52.302;4.634;2022-10-31T14:49:24;24.58;;;15.18;;
56653;SDS011;45096;52.302;4.634;2022-10-31T14:51:57;19.88;;;13.73;;
56653;SDS011;45096;52.302;4.634;2022-10-31T14:54:25;20.27;;;13.13;;
56653;SDS011;45096;52.302;4.634;2022-10-31T14:56:54;20.05;;;13.15;;
56653;SDS011;45096;52.302;4.634;2022-10-31T14:59:24;18.42;;;13.48;;
56653;SDS011;45096;52.302;4.634;2022-10-31T15:01:53;21.05;;;14.73;;